Airfield :
LOGIN :

Register | Disclaimer

   EN    FR    IT 

 










Legend :    VFR   Marginal VFR   IFR   Intensive IFR   Very Intensive IFR
Visi :
Ceiling :
>= 8 km
>= 3000ft
5 to 8 km
1000 to 3000 ft
1500m to 5 km
500 to 1000 ft
800 to 1500m
200 to 500 ft
< 800m
< 200 ft
Symbols :   Thunderstorms  Fog  Heavy snow  Heavy precipitations  Wind > 20 kt
SIGMETs :     Misc.  Thunderstorms  Icing  Turbulence  Mountain Waves  Volcanic Ashes







- Airport Elevation : 196 ft
- IATA code : SDN


ENSD - Sandane , Anda

CURRENT METAR :
  • 170650Z VRB01KT 9999 FEW075 19/13 Q1014 RMK WIND 1138FT VRB02KT

EXPIRED METARs :
  • 170620Z VRB02KT 9999 FEW075 19/13 Q1014 RMK WIND 1138FT VRB01KT
  • 170550Z VRB01KT 9999 FEW075 18/14 Q1014 RMK WIND 1138FT VRB01KT
  • 170520Z VRB01KT 9999 FEW075 18/13 Q1014 RMK WIND 1138FT VRB02KT
  • 170450Z VRB01KT CAVOK 17/13 Q1014 RMK WIND 1138FT 08003KT

TAF N/A
No reported NOTAMs for that airfield.



MET'MAP, your aeronautical weather chart ! - Copyright ORBIFLY December 2007 - Disclaimer

ORBIFLY MET'MAP TEAM :

Programming & Development : Alexandra Zaïnal
Concept & Development : Baudouin d'Aumeries
Co-Development & Prog : Marc-Olivier Méhu
Technical & hardware support : Manuel Goepfert

Contact : metmap@orbifly.com




SOURCES & CREDITS :

   NOAA